createdAt,value
2019-06-07T05:58:35.230Z,1011.37
2019-06-07T05:59:38.272Z,1011.37
2019-06-07T06:00:36.399Z,1011.38
2019-06-07T06:01:46.119Z,1011.37
2019-06-07T06:02:58.802Z,1011.42
2019-06-07T06:03:36.161Z,1011.38
2019-06-07T06:04:36.015Z,1011.37
2019-06-07T06:05:41.628Z,1011.40
2019-06-07T06:06:36.366Z,1011.34
2019-06-07T06:07:38.492Z,1011.47
2019-06-07T06:08:36.611Z,1011.36
2019-06-07T06:09:36.363Z,1011.36
2019-06-07T06:10:37.020Z,1011.32
2019-06-07T06:11:45.852Z,1011.36
2019-06-07T06:12:39.101Z,1011.38
2019-06-07T06:13:34.792Z,1011.34
2019-06-07T06:14:35.392Z,1011.36
2019-06-07T06:15:45.332Z,1011.32
2019-06-07T06:16:34.758Z,1011.35
2019-06-07T06:17:36.873Z,1011.33
2019-06-07T06:18:35.650Z,1011.39
2019-06-07T06:19:36.653Z,1011.36
2019-06-07T06:20:54.589Z,1011.36
2019-06-07T06:21:36.085Z,1011.33
2019-06-07T06:22:34.736Z,1011.35
2019-06-07T06:23:34.961Z,1011.42
2019-06-07T06:24:34.672Z,1011.40
2019-06-07T06:25:35.139Z,1011.37
2019-06-07T06:26:36.896Z,1011.40
2019-06-07T06:28:07.819Z,1011.38
2019-06-07T06:29:50.299Z,1011.36
2019-06-07T06:30:49.978Z,1011.36
2019-06-07T06:32:39.505Z,1011.41
2019-06-07T06:32:57.455Z,1011.39
2019-06-07T06:33:50.342Z,1011.39
2019-06-07T06:34:52.766Z,1011.36
2019-06-07T06:35:50.962Z,1011.35
2019-06-07T06:36:50.293Z,1011.38
2019-06-07T06:37:52.985Z,1011.32
2019-06-07T06:38:49.746Z,1011.37
2019-06-07T06:39:50.132Z,1011.38
2019-06-07T06:40:59.137Z,1011.35
2019-06-07T06:41:58.470Z,1011.34
2019-06-07T06:42:50.541Z,1011.39
2019-06-07T06:43:52.134Z,1011.40
2019-06-07T06:44:53.637Z,1011.38
2019-06-07T06:45:50.784Z,1011.43
2019-06-07T06:46:57.038Z,1011.37
2019-06-07T06:47:50.469Z,1011.31
2019-06-07T06:48:54.839Z,1011.36
2019-06-07T06:49:49.968Z,1011.37
2019-06-07T06:50:52.229Z,1011.42
2019-06-07T06:51:53.355Z,1011.38
2019-06-07T06:52:54.063Z,1011.41
2019-06-07T06:53:51.326Z,1011.34
2019-06-07T06:54:55.379Z,1011.31
2019-06-07T06:55:51.227Z,1011.33
2019-06-07T06:56:52.045Z,1011.36
2019-06-07T06:57:51.183Z,1011.30
2019-06-07T06:59:33.543Z,1011.29
2019-06-07T07:01:07.007Z,1011.40
2019-06-07T07:02:04.008Z,1011.41
2019-06-07T07:04:12.456Z,1011.32
2019-06-07T07:05:03.187Z,1011.34
2019-06-07T07:06:24.829Z,1011.32
2019-06-07T07:07:03.202Z,1011.32
2019-06-07T07:08:03.164Z,1011.38
2019-06-07T07:09:03.347Z,1011.36
2019-06-07T07:10:03.319Z,1011.37
2019-06-07T07:11:03.114Z,1011.38
2019-06-07T07:12:11.682Z,1011.42
2019-06-07T07:13:03.137Z,1011.40
2019-06-07T07:14:03.087Z,1011.40
2019-06-07T07:15:03.372Z,1011.32
2019-06-07T07:16:03.062Z,1011.31
2019-06-07T07:17:03.110Z,1011.36
2019-06-07T07:18:08.592Z,1011.34
2019-06-07T07:19:03.043Z,1011.32
2019-06-07T07:20:03.019Z,1011.39
2019-06-07T07:21:03.375Z,1011.36
2019-06-07T07:22:03.021Z,1011.33
2019-06-07T07:23:03.038Z,1011.35
2019-06-07T07:24:20.115Z,1011.41
2019-06-07T07:25:03.965Z,1011.35
2019-06-07T07:26:02.957Z,1011.38
2019-06-07T07:27:03.212Z,1011.34
2019-06-07T07:28:02.938Z,1011.36
2019-06-07T07:29:02.944Z,1011.42
2019-06-07T07:30:35.551Z,1011.41
2019-06-07T07:32:18.007Z,1011.42
2019-06-07T07:33:17.665Z,1011.36
2019-06-07T07:34:33.763Z,1011.43
2019-06-07T07:35:18.638Z,1011.46
2019-06-07T07:36:37.623Z,1011.40
2019-06-07T07:37:17.953Z,1011.40
2019-06-07T07:38:17.978Z,1011.38
2019-06-07T07:39:17.665Z,1011.45
2019-06-07T07:41:17.870Z,1011.46
2019-06-07T07:42:21.600Z,1011.42
2019-06-07T07:43:17.712Z,1011.48
2019-06-07T07:44:17.859Z,1011.45
2019-06-07T07:45:17.544Z,1011.45
2019-06-07T07:46:29.088Z,1011.46
2019-06-07T07:47:18.802Z,1011.40
2019-06-07T07:48:18.587Z,1011.43
2019-06-07T07:49:17.520Z,1011.28
2019-06-07T07:50:17.863Z,1011.38
2019-06-07T07:51:17.481Z,1011.34
2019-06-07T07:52:17.470Z,1011.37
2019-06-07T07:53:17.759Z,1011.38
2019-06-07T07:54:17.453Z,1011.39
2019-06-07T07:55:17.478Z,1011.32
2019-06-07T07:56:17.766Z,1011.42
2019-06-07T07:57:17.435Z,1011.36
2019-06-07T07:58:17.424Z,1011.35
2019-06-07T07:59:17.666Z,1011.37
2019-06-07T08:00:49.477Z,1011.39
2019-06-07T08:01:17.379Z,1011.39
2019-06-07T08:02:31.033Z,1011.36
2019-06-07T08:03:17.665Z,1011.38
2019-06-07T08:04:17.624Z,1011.36
2019-06-07T08:05:28.848Z,1011.40
2019-06-07T08:06:17.326Z,1011.42
2019-06-07T08:07:17.676Z,1011.49
2019-06-07T08:08:17.319Z,1011.39
2019-06-07T08:09:17.298Z,1011.35
2019-06-07T08:10:17.626Z,1011.33
2019-06-07T08:11:17.285Z,1011.33
2019-06-07T08:12:17.263Z,1011.38
2019-06-07T08:13:25.408Z,1011.34
2019-06-07T08:14:18.250Z,1011.41
2019-06-07T08:15:17.240Z,1011.42
2019-06-07T08:16:18.832Z,1011.37
2019-06-07T08:17:17.217Z,1011.38
2019-06-07T08:18:17.206Z,1011.36
2019-06-07T08:19:17.523Z,1011.41
2019-06-07T08:20:17.201Z,1011.41
2019-06-07T08:21:25.833Z,1011.38
2019-06-07T08:22:17.505Z,1011.40
2019-06-07T08:23:17.155Z,1011.48
2019-06-07T08:24:17.153Z,1011.39
2019-06-07T08:25:17.130Z,1011.41
2019-06-07T08:26:17.155Z,1011.33
2019-06-07T08:27:26.081Z,1011.28
2019-06-07T08:28:18.107Z,1011.30
2019-06-07T08:30:47.200Z,1011.37
2019-06-07T08:31:17.076Z,1011.39
2019-06-07T08:32:17.103Z,1011.43
2019-06-07T08:33:30.778Z,1011.40
2019-06-07T08:34:17.358Z,1011.38
2019-06-07T08:38:33.778Z,1011.42
2019-06-07T08:39:18.296Z,1011.46
2019-06-07T08:41:16.971Z,1011.43
2019-06-07T08:42:21.921Z,1011.46
2019-06-07T08:43:20.870Z,1011.46
2019-06-07T08:44:23.925Z,1011.48
2019-06-07T08:45:17.287Z,1011.44
2019-06-07T08:46:16.924Z,1011.44
2019-06-07T08:47:21.010Z,1011.48
2019-06-07T08:48:27.490Z,1011.45
2019-06-07T08:49:16.909Z,1011.45
2019-06-07T08:50:16.886Z,1011.44
2019-06-07T08:51:17.212Z,1011.39
2019-06-07T08:52:16.907Z,1011.34
2019-06-07T08:53:16.896Z,1011.35
2019-06-07T08:55:16.831Z,1011.37
2019-06-07T08:56:16.818Z,1011.34
2019-06-07T08:57:21.773Z,1011.31
2019-06-07T08:58:16.805Z,1011.41
2019-06-07T08:59:16.839Z,1011.31
2019-06-07T09:00:42.905Z,1011.38
2019-06-07T09:02:23.921Z,1011.43
2019-06-07T09:03:17.026Z,1011.38
2019-06-07T09:05:31.160Z,1011.38
2019-06-07T09:07:32.412Z,1011.37
2019-06-07T09:08:31.455Z,1011.41
2019-06-07T09:09:31.255Z,1011.37
2019-06-07T09:10:31.111Z,1011.38
2019-06-07T09:11:31.383Z,1011.35
2019-06-07T09:12:31.083Z,1011.42
2019-06-07T09:13:31.070Z,1011.40
2019-06-07T09:14:31.394Z,1011.36
2019-06-07T09:15:31.062Z,1011.40
2019-06-07T09:16:31.047Z,1011.38
2019-06-07T09:17:31.344Z,1011.40
2019-06-07T09:18:42.314Z,1011.45
2019-06-07T09:19:31.003Z,1011.45
2019-06-07T09:20:36.866Z,1011.39
2019-06-07T09:21:30.997Z,1011.39
2019-06-07T09:22:30.978Z,1011.41
2019-06-07T09:23:31.258Z,1011.37
2019-06-07T09:24:31.023Z,1011.38
2019-06-07T09:25:31.256Z,1011.41
2019-06-07T09:26:30.922Z,1011.45
2019-06-07T09:27:30.923Z,1011.49
2019-06-07T09:28:30.909Z,1011.44
2019-06-07T09:29:31.198Z,1011.38
2019-06-07T09:30:30.886Z,1011.38
2019-06-07T09:31:51.073Z,1011.42
2019-06-07T09:32:30.873Z,1011.36
2019-06-07T09:33:30.848Z,1011.52
2019-06-07T09:34:31.124Z,1011.47
2019-06-07T09:36:45.471Z,1011.43
2019-06-07T09:38:45.711Z,1011.42
2019-06-07T09:39:45.753Z,1011.43
2019-06-07T09:40:45.394Z,1011.48
2019-06-07T09:41:49.975Z,1011.44
2019-06-07T09:42:46.706Z,1011.45
2019-06-07T09:44:14.228Z,1011.42
2019-06-07T09:44:46.347Z,1011.46
2019-06-07T09:45:45.525Z,1011.48
2019-06-07T09:46:45.329Z,1011.46
2019-06-07T09:47:45.324Z,1011.48
2019-06-07T09:49:10.559Z,1011.50
2019-06-07T09:49:46.290Z,1011.51
2019-06-07T09:50:45.289Z,1011.49
2019-06-07T09:51:45.590Z,1011.47
2019-06-07T09:52:58.095Z,1011.54
2019-06-07T09:53:45.259Z,1011.51
2019-06-07T09:55:45.246Z,1011.48
2019-06-07T09:56:46.300Z,1011.50
2019-06-07T09:57:45.498Z,1011.48
2019-06-07T09:58:51.722Z,1011.48
2019-06-07T09:59:46.892Z,1011.56
2019-06-07T10:00:45.507Z,1011.49
2019-06-07T10:01:45.161Z,1011.52
2019-06-07T10:02:45.149Z,1011.46
2019-06-07T10:03:45.485Z,1011.51
2019-06-07T10:04:45.128Z,1011.49
2019-06-07T10:05:45.119Z,1011.52
2019-06-07T10:08:00.048Z,1011.54
2019-06-07T10:10:45.064Z,1011.50
2019-06-07T10:11:45.362Z,1011.53
2019-06-07T10:12:45.041Z,1011.55
2019-06-07T10:13:45.091Z,1011.51
2019-06-07T10:14:45.474Z,1011.56
2019-06-07T10:15:45.014Z,1011.52
2019-06-07T10:16:46.789Z,1011.55
2019-06-07T10:17:44.986Z,1011.52
2019-06-07T10:18:44.979Z,1011.52
2019-06-07T10:19:45.340Z,1011.60
2019-06-07T10:20:44.956Z,1011.60
2019-06-07T10:21:44.945Z,1011.61
2019-06-07T10:22:45.264Z,1011.54
2019-06-07T10:23:44.919Z,1011.66
2019-06-07T10:24:44.922Z,1011.54
2019-06-07T10:25:45.216Z,1011.56
2019-06-07T10:26:44.891Z,1011.62
2019-06-07T10:27:44.882Z,1011.66
2019-06-07T10:28:45.204Z,1011.56
2019-06-07T10:29:44.856Z,1011.58
2019-06-07T10:30:44.856Z,1011.61
2019-06-07T10:31:45.167Z,1011.61
2019-06-07T10:32:44.829Z,1011.58
2019-06-07T10:33:44.812Z,1011.68
2019-06-07T10:34:45.163Z,1011.65
2019-06-07T10:35:44.802Z,1011.55
2019-06-07T10:36:44.837Z,1011.60
2019-06-07T10:37:58.105Z,1011.59
2019-06-07T10:38:45.088Z,1011.55
2019-06-07T10:39:48.736Z,1011.52
2019-06-07T10:40:44.739Z,1011.55
2019-06-07T10:41:45.064Z,1011.49
2019-06-07T10:42:44.716Z,1011.57
2019-06-07T10:43:44.707Z,1011.56
2019-06-07T10:44:44.976Z,1011.49
2019-06-07T10:45:44.682Z,1011.52
2019-06-07T10:46:44.684Z,1011.51
2019-06-07T10:47:44.993Z,1011.61
2019-06-07T10:48:44.653Z,1011.64
2019-06-07T10:49:44.640Z,1011.57
2019-06-07T10:50:44.945Z,1011.52
2019-06-07T10:51:44.622Z,1011.48
2019-06-07T10:52:44.615Z,1011.53
2019-06-07T10:53:44.864Z,1011.47
2019-06-07T10:54:44.587Z,1011.46
2019-06-07T10:55:44.577Z,1011.49
2019-06-07T10:56:44.878Z,1011.42
2019-06-07T10:57:44.568Z,1011.40
2019-06-07T10:58:44.536Z,1011.51
2019-06-07T10:59:44.950Z,1011.46
2019-06-07T11:00:44.525Z,1011.45
2019-06-07T11:01:44.507Z,1011.47
2019-06-07T11:02:44.796Z,1011.51
2019-06-07T11:03:44.501Z,1011.44
2019-06-07T11:04:44.477Z,1011.48
2019-06-07T11:05:44.743Z,1011.51
2019-06-07T11:06:44.461Z,1011.46
2019-06-07T11:07:44.467Z,1011.42
2019-06-07T11:08:56.805Z,1011.39
2019-06-07T11:09:44.445Z,1011.34
2019-06-07T11:10:44.689Z,1011.34
2019-06-07T11:11:44.784Z,1011.35
2019-06-07T11:12:44.420Z,1011.39
2019-06-07T11:13:44.387Z,1011.39
2019-06-07T11:14:44.673Z,1011.35
2019-06-07T11:15:44.370Z,1011.38
2019-06-07T11:16:44.383Z,1011.37
2019-06-07T11:17:44.776Z,1011.34
2019-06-07T11:18:44.367Z,1011.38
2019-06-07T11:19:44.319Z,1011.34
2019-06-07T11:20:44.629Z,1011.33
2019-06-07T11:21:44.303Z,1011.36
2019-06-07T11:22:44.295Z,1011.31
2019-06-07T11:23:44.589Z,1011.30
2019-06-07T11:24:44.690Z,1011.34
2019-06-07T11:25:44.255Z,1011.33
2019-06-07T11:26:44.556Z,1011.37
2019-06-07T11:27:44.241Z,1011.31
2019-06-07T11:28:44.234Z,1011.28
2019-06-07T11:29:44.585Z,1011.21
2019-06-07T11:30:44.201Z,1011.27
2019-06-07T11:31:47.296Z,1011.23
2019-06-07T11:32:44.185Z,1011.32
2019-06-07T11:33:44.170Z,1011.28
2019-06-07T11:34:44.496Z,1011.28
2019-06-07T11:35:44.146Z,1011.25
2019-06-07T11:36:44.134Z,1011.26
2019-06-07T11:37:44.477Z,1011.22
2019-06-07T11:38:44.125Z,1011.25
2019-06-07T11:39:57.328Z,1011.29
2019-06-07T11:40:44.106Z,1011.31
2019-06-07T11:41:44.428Z,1011.30
2019-06-07T11:42:44.378Z,1011.28
2019-06-07T11:43:44.069Z,1011.27
2019-06-07T11:44:56.223Z,1011.31
2019-06-07T11:45:45.428Z,1011.25
2019-06-07T11:46:44.038Z,1011.28
2019-06-07T11:47:44.031Z,1011.30
2019-06-07T11:48:44.363Z,1011.29
2019-06-07T11:49:44.005Z,1011.23
2019-06-07T11:50:44.011Z,1011.23
2019-06-07T11:51:44.305Z,1011.20
2019-06-07T11:52:46.356Z,1011.24
2019-06-07T11:53:43.960Z,1011.25
2019-06-07T11:54:47.763Z,1011.17
2019-06-07T11:55:43.936Z,1011.26
2019-06-07T11:56:43.942Z,1011.23
2019-06-07T11:57:44.244Z,1011.31
2019-06-07T11:58:43.909Z,1011.25
2019-06-07T11:59:43.903Z,1011.27
2019-06-07T12:00:44.191Z,1011.32
2019-06-07T12:01:43.890Z,1011.25
2019-06-07T12:02:43.868Z,1011.29
2019-06-07T12:03:44.199Z,1011.33
2019-06-07T12:04:43.849Z,1011.30
2019-06-07T12:05:43.831Z,1011.28
2019-06-07T12:06:44.137Z,1011.21
2019-06-07T12:07:43.837Z,1011.27
2019-06-07T12:08:43.801Z,1011.23
2019-06-07T12:09:55.921Z,1011.32
2019-06-07T12:10:56.446Z,1011.26
2019-06-07T12:11:44.048Z,1011.28
2019-06-07T12:12:43.779Z,1011.20
2019-06-07T12:13:43.750Z,1011.26
2019-06-07T12:14:44.005Z,1011.23
2019-06-07T12:15:43.730Z,1011.22
2019-06-07T12:16:43.765Z,1011.19
2019-06-07T12:17:43.793Z,1011.22
2019-06-07T12:18:43.999Z,1011.25
2019-06-07T12:19:43.704Z,1011.22
2019-06-07T12:20:43.685Z,1011.26
2019-06-07T12:21:43.989Z,1011.22
2019-06-07T12:22:43.708Z,1011.25
2019-06-07T12:23:43.653Z,1011.20
2019-06-07T12:24:43.978Z,1011.20
2019-06-07T12:25:43.639Z,1011.17
2019-06-07T12:26:43.660Z,1011.10
2019-06-07T12:27:43.919Z,1011.13
2019-06-07T12:28:43.614Z,1011.11
2019-06-07T12:29:43.595Z,1011.05
2019-06-07T12:30:44.266Z,1011.12
2019-06-07T12:31:43.572Z,1011.18
2019-06-07T12:32:43.923Z,1011.14
2019-06-07T12:33:43.561Z,1011.22
2019-06-07T12:34:43.549Z,1011.16
2019-06-07T12:35:43.846Z,1011.07
2019-06-07T12:36:43.513Z,1011.08
2019-06-07T12:37:44.935Z,1011.10
2019-06-07T12:38:43.839Z,1010.97
2019-06-07T12:39:43.490Z,1011.01
2019-06-07T12:40:56.789Z,1011.03
2019-06-07T12:41:56.157Z,1011.03
2019-06-07T12:42:43.456Z,1011.00
2019-06-07T12:43:43.807Z,1010.99
2019-06-07T12:44:43.728Z,1011.00
2019-06-07T12:45:45.554Z,1011.01
2019-06-07T12:46:43.409Z,1010.96
2019-06-07T12:47:43.752Z,1010.94
2019-06-07T12:48:43.400Z,1010.92
2019-06-07T12:49:43.395Z,1010.91
2019-06-07T12:50:44.083Z,1010.94
2019-06-07T12:51:43.362Z,1010.93
2019-06-07T12:52:43.350Z,1010.93
2019-06-07T12:53:43.604Z,1010.90
2019-06-07T12:54:43.353Z,1010.92
2019-06-07T12:55:43.316Z,1010.90
2019-06-07T12:56:43.598Z,1010.93
2019-06-07T12:57:43.299Z,1010.88
2019-06-07T12:58:43.282Z,1010.96
2019-06-07T12:59:43.624Z,1010.90
2019-06-07T13:00:43.274Z,1010.90
2019-06-07T13:01:43.257Z,1010.94
2019-06-07T13:02:43.246Z,1010.89
2019-06-07T13:04:43.608Z,1010.90
2019-06-07T13:05:43.226Z,1010.92
2019-06-07T13:06:43.208Z,1010.83
2019-06-07T13:08:43.184Z,1010.89
2019-06-07T13:09:43.277Z,1010.84
2019-06-07T13:10:43.495Z,1010.90
2019-06-07T13:11:43.158Z,1010.84
2019-06-07T13:12:55.304Z,1010.81
2019-06-07T13:13:43.137Z,1010.77
2019-06-07T13:14:43.443Z,1010.77
2019-06-07T13:15:43.440Z,1010.88
2019-06-07T13:16:43.393Z,1010.87
2019-06-07T13:17:43.093Z,1010.83
2019-06-07T13:18:43.079Z,1010.83
2019-06-07T13:19:43.313Z,1010.88
2019-06-07T13:20:43.076Z,1010.81
2019-06-07T13:21:43.063Z,1010.80
2019-06-07T13:22:43.314Z,1010.82
2019-06-07T13:23:44.338Z,1010.78
2019-06-07T13:24:43.017Z,1010.80
2019-06-07T13:25:46.457Z,1010.77
2019-06-07T13:26:43.010Z,1010.74
2019-06-07T13:27:42.986Z,1010.74
2019-06-07T13:28:43.318Z,1010.77
2019-06-07T13:29:42.966Z,1010.66
2019-06-07T13:30:42.963Z,1010.65
2019-06-07T13:31:43.265Z,1010.67
2019-06-07T13:32:42.936Z,1010.73
2019-06-07T13:33:42.928Z,1010.74
2019-06-07T13:35:42.909Z,1010.76
2019-06-07T13:36:42.908Z,1010.64
2019-06-07T13:37:43.209Z,1010.63
2019-06-07T13:38:42.882Z,1010.64
2019-06-07T13:39:42.858Z,1010.67
2019-06-07T13:40:43.160Z,1010.66
2019-06-07T13:41:43.456Z,1010.64
2019-06-07T13:42:42.843Z,1010.63
2019-06-07T13:43:55.709Z,1010.61
2019-06-07T13:44:43.135Z,1010.63
2019-06-07T13:45:43.097Z,1010.59
2019-06-07T13:46:42.802Z,1010.58
2019-06-07T13:47:42.778Z,1010.63
2019-06-07T13:48:43.060Z,1010.62
2019-06-07T13:49:42.763Z,1010.60
2019-06-07T13:50:42.837Z,1010.61
2019-06-07T13:51:43.117Z,1010.61
2019-06-07T13:52:45.237Z,1010.64
2019-06-07T13:53:42.719Z,1010.64
2019-06-07T13:54:42.996Z,1010.66
2019-06-07T13:55:42.703Z,1010.69
2019-06-07T13:57:00.763Z,1010.63
2019-06-07T13:57:43.206Z,1010.66
2019-06-07T13:58:42.670Z,1010.68
2019-06-07T13:59:42.657Z,1010.64
2019-06-07T14:00:42.646Z,1010.62
2019-06-07T14:01:42.651Z,1010.72
2019-06-07T14:02:42.935Z,1010.72
2019-06-07T14:03:42.615Z,1010.72
2019-06-07T14:04:42.605Z,1010.71
2019-06-07T14:05:42.970Z,1010.76
2019-06-07T14:06:42.591Z,1010.68
2019-06-07T14:07:42.584Z,1010.76
2019-06-07T14:08:42.894Z,1010.72
2019-06-07T14:09:42.555Z,1010.64
2019-06-07T14:10:42.543Z,1010.60
2019-06-07T14:11:50.335Z,1010.67
2019-06-07T14:12:43.567Z,1010.65
2019-06-07T14:13:42.515Z,1010.69
2019-06-07T14:14:54.587Z,1010.76
2019-06-07T14:15:42.801Z,1010.66
2019-06-07T14:16:42.482Z,1010.60
2019-06-07T14:17:42.504Z,1010.64
2019-06-07T14:18:42.802Z,1010.74
2019-06-07T14:19:42.459Z,1010.71
2019-06-07T14:20:42.438Z,1010.70
2019-06-07T14:21:42.770Z,1010.72
2019-06-07T14:22:42.422Z,1010.68
2019-06-07T14:23:49.110Z,1010.65
2019-06-07T14:24:43.671Z,1010.71
2019-06-07T14:25:42.402Z,1010.69
2019-06-07T14:26:42.381Z,1010.63
2019-06-07T14:27:42.715Z,1010.70
2019-06-07T14:28:42.362Z,1010.72
2019-06-07T14:29:42.387Z,1010.72
2019-06-07T14:30:43.161Z,1010.55
2019-06-07T14:31:42.335Z,1010.57
2019-06-07T14:32:42.318Z,1010.63
2019-06-07T14:33:42.313Z,1010.57
2019-06-07T14:34:42.305Z,1010.53
2019-06-07T14:35:42.613Z,1010.59
2019-06-07T14:36:42.281Z,1010.57
2019-06-07T14:37:42.261Z,1010.59
2019-06-07T14:38:42.613Z,1010.56
2019-06-07T14:39:42.251Z,1010.60
2019-06-07T14:40:42.243Z,1010.59
2019-06-07T14:41:42.451Z,1010.56
2019-06-07T14:42:42.215Z,1010.63
2019-06-07T14:43:42.267Z,1010.55
2019-06-07T14:44:42.503Z,1010.50
2019-06-07T14:45:54.218Z,1010.51
2019-06-07T14:46:42.490Z,1010.49
2019-06-07T14:47:42.477Z,1010.53
2019-06-07T14:48:42.415Z,1010.50
2019-06-07T14:49:42.135Z,1010.46
2019-06-07T14:50:43.004Z,1010.47
2019-06-07T14:51:42.121Z,1010.48
2019-06-07T14:52:42.106Z,1010.54
2019-06-07T14:53:42.408Z,1010.52
2019-06-07T14:54:42.095Z,1010.59
2019-06-07T14:55:42.095Z,1010.55
2019-06-07T14:56:42.407Z,1010.59
2019-06-07T14:57:42.055Z,1010.58
2019-06-07T14:58:43.481Z,1010.60
2019-06-07T14:59:42.397Z,1010.61
2019-06-07T15:00:42.026Z,1010.54
2019-06-07T15:01:42.033Z,1010.61
2019-06-07T15:02:42.314Z,1010.58
2019-06-07T15:03:42.003Z,1010.57
2019-06-07T15:04:41.988Z,1010.49
2019-06-07T15:05:42.315Z,1010.50
2019-06-07T15:06:41.975Z,1010.51
2019-06-07T15:07:41.953Z,1010.50
2019-06-07T15:08:42.287Z,1010.40
2019-06-07T15:09:41.939Z,1010.42
2019-06-07T15:10:41.924Z,1010.38
2019-06-07T15:11:42.279Z,1010.39
2019-06-07T15:12:41.914Z,1010.39
2019-06-07T15:13:41.893Z,1010.42
2019-06-07T15:14:42.186Z,1010.35
2019-06-07T15:15:41.881Z,1010.29
2019-06-07T15:16:54.034Z,1010.33
2019-06-07T15:17:41.874Z,1010.39
2019-06-07T15:18:42.113Z,1010.34
2019-06-07T15:19:42.146Z,1010.36
2019-06-07T15:20:41.828Z,1010.37
2019-06-07T15:21:41.814Z,1010.28
2019-06-07T15:22:42.156Z,1010.29
2019-06-07T15:23:41.804Z,1010.29
2019-06-07T15:24:41.778Z,1010.30
2019-06-07T15:25:42.092Z,1010.22
2019-06-07T15:26:41.759Z,1010.25
2019-06-07T15:27:41.745Z,1010.23
2019-06-07T15:28:42.170Z,1010.22
2019-06-07T15:29:41.737Z,1010.26
2019-06-07T15:30:41.752Z,1010.23
2019-06-07T15:31:41.998Z,1010.25
2019-06-07T15:32:41.730Z,1010.23
2019-06-07T15:33:41.695Z,1010.24
2019-06-07T15:34:42.047Z,1010.25
2019-06-07T15:35:41.686Z,1010.21
2019-06-07T15:36:41.657Z,1010.23
2019-06-07T15:37:41.964Z,1010.21
2019-06-07T15:38:41.633Z,1010.33
2019-06-07T15:39:41.633Z,1010.32
2019-06-07T15:40:41.947Z,1010.33
2019-06-07T15:41:41.607Z,1010.32
2019-06-07T15:42:52.108Z,1010.33
2019-06-07T15:43:42.964Z,1010.34
2019-06-07T15:44:41.605Z,1010.40
2019-06-07T15:45:41.567Z,1010.39
2019-06-07T15:46:41.882Z,1010.32
2019-06-07T15:47:53.252Z,1010.38
2019-06-07T15:48:41.865Z,1010.39
2019-06-07T15:49:41.541Z,1010.35
2019-06-07T15:50:41.505Z,1010.30
2019-06-07T15:51:41.872Z,1010.33
2019-06-07T15:52:43.273Z,1010.34
2019-06-07T15:53:44.557Z,1010.35
2019-06-07T15:54:41.818Z,1010.32
2019-06-07T15:55:45.456Z,1010.34
2019-06-07T15:56:41.527Z,1010.32
2019-06-07T15:57:42.152Z,1010.30
2019-06-07T15:58:41.478Z,1010.30
2019-06-07T15:59:41.588Z,1010.30
2019-06-07T16:00:42.597Z,1010.33
2019-06-07T16:01:42.058Z,1010.32
2019-06-07T16:02:41.849Z,1010.37
2019-06-07T16:03:42.079Z,1010.34
2019-06-07T16:04:42.057Z,1010.34
2019-06-07T16:05:41.364Z,1010.36
2019-06-07T16:06:43.548Z,1010.33
2019-06-07T16:07:42.952Z,1010.33
2019-06-07T16:08:42.588Z,1010.34
2019-06-07T16:09:42.747Z,1010.32
2019-06-07T16:10:42.915Z,1010.36
2019-06-07T16:11:41.756Z,1010.31
2019-06-07T16:12:58.623Z,1010.29
2019-06-07T16:13:41.281Z,1010.30
2019-06-07T16:14:43.327Z,1010.37
2019-06-07T16:15:41.487Z,1010.39
2019-06-07T16:16:41.442Z,1010.37
2019-06-07T16:17:42.150Z,1010.35
2019-06-07T16:18:53.495Z,1010.44
2019-06-07T16:19:43.542Z,1010.35
2019-06-07T16:20:43.675Z,1010.41
2019-06-07T16:21:41.565Z,1010.37
2019-06-07T16:22:41.988Z,1010.39
2019-06-07T16:23:42.098Z,1010.37
2019-06-07T16:24:41.855Z,1010.34
2019-06-07T16:25:42.135Z,1010.34
2019-06-07T16:26:42.446Z,1010.32
2019-06-07T16:27:42.660Z,1010.38
2019-06-07T16:28:42.453Z,1010.38
2019-06-07T16:29:42.700Z,1010.39
2019-06-07T16:30:41.097Z,1010.40
2019-06-07T16:31:41.097Z,1010.42
2019-06-07T16:32:41.812Z,1010.37
2019-06-07T16:33:41.532Z,1010.40
2019-06-07T16:34:41.833Z,1010.38
2019-06-07T16:35:41.339Z,1010.39
2019-06-07T16:36:42.192Z,1010.35
2019-06-07T16:37:42.779Z,1010.35
2019-06-07T16:38:42.269Z,1010.33
2019-06-07T16:39:42.217Z,1010.36
2019-06-07T16:40:42.157Z,1010.30
2019-06-07T16:41:42.704Z,1010.32
2019-06-07T16:42:42.743Z,1010.33
2019-06-07T16:43:40.967Z,1010.37
2019-06-07T16:44:42.521Z,1010.39
2019-06-07T16:45:41.017Z,1010.34
2019-06-07T16:46:40.924Z,1010.38
2019-06-07T16:47:43.037Z,1010.31
2019-06-07T16:48:40.937Z,1010.38
2019-06-07T16:49:53.173Z,1010.40
2019-06-07T16:50:41.236Z,1010.40
2019-06-07T16:51:41.279Z,1010.34
2019-06-07T16:52:41.892Z,1010.36
2019-06-07T16:53:40.849Z,1010.42
2019-06-07T16:54:41.454Z,1010.40
2019-06-07T16:55:42.634Z,1010.43
2019-06-07T16:56:44.444Z,1010.41
2019-06-07T16:57:41.064Z,1010.49
2019-06-07T16:58:42.178Z,1010.44
2019-06-07T16:59:41.033Z,1010.46
2019-06-07T17:00:42.149Z,1010.43
2019-06-07T17:01:41.133Z,1010.44
2019-06-07T17:02:41.892Z,1010.38
2019-06-07T17:03:41.446Z,1010.41
2019-06-07T17:04:41.587Z,1010.41
2019-06-07T17:05:45.071Z,1010.38
2019-06-07T17:06:41.691Z,1010.44
2019-06-07T17:07:42.293Z,1010.38
2019-06-07T17:08:42.036Z,1010.39
2019-06-07T17:09:42.127Z,1010.36
2019-06-07T17:10:40.682Z,1010.39
2019-06-07T17:11:40.667Z,1010.37
2019-06-07T17:12:42.654Z,1010.39
2019-06-07T17:13:40.637Z,1010.34
2019-06-07T17:14:40.626Z,1010.37
2019-06-07T17:15:40.886Z,1010.37
2019-06-07T17:16:40.920Z,1010.37
2019-06-07T17:17:41.077Z,1010.44
2019-06-07T17:18:40.940Z,1010.43
2019-06-07T17:19:40.891Z,1010.47
2019-06-07T17:20:53.504Z,1010.47
2019-06-07T17:21:41.205Z,1010.38
2019-06-07T17:22:41.989Z,1010.39
2019-06-07T17:23:41.183Z,1010.36
2019-06-07T17:24:41.304Z,1010.36
2019-06-07T17:25:41.317Z,1010.37
2019-06-07T17:26:41.615Z,1010.34
2019-06-07T17:27:41.909Z,1010.44
2019-06-07T17:28:41.769Z,1010.35
2019-06-07T17:29:42.004Z,1010.29
2019-06-07T17:30:41.736Z,1010.32
2019-06-07T17:31:41.787Z,1010.31
2019-06-07T17:32:50.531Z,1010.32
2019-06-07T17:33:41.856Z,1010.33
2019-06-07T17:34:40.421Z,1010.27
2019-06-07T17:35:40.410Z,1010.27
2019-06-07T17:36:40.394Z,1010.26
2019-06-07T17:37:43.197Z,1010.24
2019-06-07T17:38:40.466Z,1010.26
2019-06-07T17:39:40.675Z,1010.26
2019-06-07T17:40:40.736Z,1010.25
2019-06-07T17:41:52.395Z,1010.22
2019-06-07T17:42:40.787Z,1010.23
2019-06-07T17:43:53.003Z,1010.22
2019-06-07T17:44:40.840Z,1010.15
2019-06-07T17:45:41.268Z,1010.16
2019-06-07T17:46:41.580Z,1010.21
2019-06-07T17:47:41.466Z,1010.14
2019-06-07T17:48:41.446Z,1010.16
2019-06-07T17:49:41.623Z,1010.24
2019-06-07T17:50:41.543Z,1010.28
2019-06-07T17:51:53.729Z,1010.25
2019-06-07T17:52:41.643Z,1010.30
2019-06-07T17:53:41.742Z,1010.32
2019-06-07T17:54:40.208Z,1010.29
2019-06-07T17:55:40.218Z,1010.25
2019-06-07T17:56:40.548Z,1010.26
2019-06-07T17:57:40.175Z,1010.27
2019-06-07T17:58:40.171Z,1010.31
2019-06-07T17:59:40.458Z,1010.26
2019-06-07T18:00:40.144Z,1010.30
2019-06-07T18:01:41.764Z,1010.27
2019-06-07T18:02:40.449Z,1010.20
2019-06-07T18:03:40.114Z,1010.16
2019-06-07T18:04:40.150Z,1010.17
2019-06-07T18:05:40.498Z,1010.20
2019-06-07T18:06:40.079Z,1010.17
2019-06-07T18:07:40.076Z,1010.20
2019-06-07T18:08:40.349Z,1010.17
2019-06-07T18:09:40.048Z,1010.13
2019-06-07T18:10:40.050Z,1010.21
2019-06-07T18:11:40.365Z,1010.15
2019-06-07T18:12:40.024Z,1010.14
2019-06-07T18:13:40.007Z,1010.12
2019-06-07T18:14:40.299Z,1010.08
2019-06-07T18:15:40.004Z,1010.14
2019-06-07T18:16:39.974Z,1010.12
2019-06-07T18:17:40.296Z,1010.13
2019-06-07T18:18:39.948Z,1010.11
2019-06-07T18:19:39.935Z,1010.20
2019-06-07T18:20:40.174Z,1010.23
2019-06-07T18:21:39.920Z,1010.22
2019-06-07T18:22:53.376Z,1010.22
2019-06-07T18:23:40.223Z,1010.21
2019-06-07T18:24:39.883Z,1010.23
2019-06-07T18:25:39.873Z,1010.23
2019-06-07T18:26:40.232Z,1010.25
2019-06-07T18:27:39.853Z,1010.30